createdAt,value
2022-10-14T00:00:12.409Z,27.25
2022-10-14T00:05:13.923Z,25.30
2022-10-14T00:10:15.428Z,25.65
2022-10-14T00:15:17.338Z,25.98
2022-10-14T00:20:18.763Z,25.83
2022-10-14T00:25:20.187Z,25.17
2022-10-14T00:30:21.604Z,25.67
2022-10-14T00:35:23.731Z,26.38
2022-10-14T00:40:26.560Z,25.00
2022-10-14T00:45:28.146Z,24.98
2022-10-14T00:50:29.576Z,26.67
2022-10-14T00:55:31.293Z,26.42
2022-10-14T01:00:33.258Z,25.48
2022-10-14T01:05:44.091Z,26.23
2022-10-14T01:10:54.799Z,25.98
2022-10-14T01:16:05.195Z,26.42
2022-10-14T01:21:27.523Z,26.38
2022-10-14T01:26:58.708Z,27.25
2022-10-14T01:32:09.790Z,27.50
2022-10-14T01:37:19.197Z,28.38
2022-10-14T01:42:25.945Z,27.52
2022-10-14T01:47:33.012Z,26.95
2022-10-14T01:52:40.602Z,26.50
2022-10-14T01:57:44.192Z,27.17
2022-10-14T02:02:45.686Z,26.98
2022-10-14T02:07:53.741Z,28.08
2022-10-14T02:13:28.912Z,28.65
2022-10-14T02:18:40.707Z,27.52
2022-10-14T02:23:47.899Z,27.38
2022-10-14T02:28:50.840Z,27.80
2022-10-14T02:33:56.149Z,27.67
2022-10-14T02:39:00.590Z,27.70
2022-10-14T02:44:02.293Z,28.17
2022-10-14T02:49:04.047Z,27.52
2022-10-14T02:54:05.733Z,27.42
2022-10-14T02:59:07.392Z,26.33
2022-10-14T03:04:08.848Z,26.67
2022-10-14T03:09:10.243Z,27.33
2022-10-14T03:14:12.270Z,27.05
2022-10-14T03:19:13.896Z,28.05
2022-10-14T03:24:15.314Z,27.45
2022-10-14T03:29:17.131Z,28.10
2022-10-14T03:34:18.732Z,27.95
2022-10-14T03:39:20.536Z,26.63
2022-10-14T03:44:22.028Z,28.90
2022-10-14T03:49:23.740Z,27.80
2022-10-14T03:54:25.165Z,27.95
2022-10-14T03:59:26.590Z,27.15
2022-10-14T04:04:28.004Z,27.90
2022-10-14T04:09:29.479Z,29.25
2022-10-14T04:14:30.965Z,26.45
2022-10-14T04:19:32.625Z,27.27
2022-10-14T04:24:34.049Z,26.48
2022-10-14T04:29:35.468Z,27.73
2022-10-14T04:34:36.979Z,27.67
2022-10-14T04:39:38.551Z,27.80
2022-10-14T04:44:40.739Z,29.13
2022-10-14T04:49:42.203Z,28.58
2022-10-14T04:54:43.783Z,28.88
2022-10-14T04:59:45.187Z,28.65
2022-10-14T05:04:46.586Z,28.00
2022-10-14T05:09:50.470Z,29.58
2022-10-14T05:14:55.096Z,29.38
2022-10-14T05:19:56.533Z,28.42
2022-10-14T05:24:57.982Z,28.98
2022-10-14T05:29:59.425Z,28.42
2022-10-14T05:35:00.857Z,28.17
2022-10-14T05:40:02.335Z,28.60
2022-10-14T05:45:04.909Z,28.02
2022-10-14T05:50:06.775Z,28.45
2022-10-14T05:55:08.914Z,29.73
2022-10-14T06:00:10.932Z,27.58
2022-10-14T06:05:12.359Z,29.17
2022-10-14T06:10:13.799Z,28.52
2022-10-14T06:15:15.321Z,28.70
2022-10-14T06:20:16.799Z,27.85
2022-10-14T06:25:18.205Z,28.30
2022-10-14T06:30:19.819Z,30.38
2022-10-14T06:35:21.207Z,28.25
2022-10-14T06:40:22.650Z,28.90
2022-10-14T06:45:24.213Z,28.98
2022-10-14T06:50:25.797Z,30.13
2022-10-14T06:55:27.217Z,28.50
2022-10-14T07:00:28.654Z,30.30
2022-10-14T07:05:30.336Z,28.55
2022-10-14T07:10:31.752Z,28.38
2022-10-14T07:15:35.430Z,30.88
2022-10-14T07:20:37.904Z,30.42
2022-10-14T07:25:39.443Z,31.17
2022-10-14T07:30:40.894Z,31.23
2022-10-14T07:35:42.297Z,28.95
2022-10-14T07:40:43.698Z,29.05
2022-10-14T07:45:47.808Z,27.92
2022-10-14T07:50:50.189Z,27.85
2022-10-14T07:55:52.629Z,27.75
2022-10-14T08:00:55.042Z,27.83
2022-10-14T08:06:01.332Z,26.92
2022-10-14T08:11:04.577Z,26.35
2022-10-14T08:16:30.091Z,25.27
2022-10-14T08:21:31.551Z,24.25
2022-10-14T08:26:38.221Z,25.20
2022-10-14T08:31:39.685Z,23.95
2022-10-14T08:36:41.484Z,23.55
2022-10-14T08:42:20.784Z,24.23
2022-10-14T08:47:27.349Z,23.20
2022-10-14T08:52:41.615Z,22.17
2022-10-14T08:57:50.702Z,21.90
2022-10-14T09:07:56.390Z,21.23
2022-10-14T09:13:07.381Z,21.27
2022-10-14T09:18:26.858Z,21.02
2022-10-14T09:23:28.474Z,20.60
2022-10-14T09:28:38.814Z,20.50
2022-10-14T09:33:42.778Z,19.10
2022-10-14T09:38:47.987Z,19.85
2022-10-14T09:44:25.834Z,20.27
2022-10-14T09:49:46.549Z,19.33
2022-10-14T09:54:57.164Z,18.20
2022-10-14T10:00:01.127Z,18.02
2022-10-14T10:05:28.507Z,19.33
2022-10-14T10:10:31.049Z,19.13
2022-10-14T10:15:32.502Z,17.42
2022-10-14T10:20:34.192Z,16.65
2022-10-14T10:25:35.636Z,13.55
2022-10-14T10:30:46.366Z,14.73
2022-10-14T10:36:00.655Z,13.65
2022-10-14T10:41:19.957Z,15.50
2022-10-14T10:46:36.637Z,16.00
2022-10-14T10:51:53.552Z,13.90
2022-10-14T10:56:59.163Z,14.45
2022-10-14T11:02:12.403Z,13.43
2022-10-14T11:08:09.117Z,14.00
2022-10-14T11:13:46.725Z,14.73
2022-10-14T11:19:03.198Z,14.00
2022-10-14T11:24:13.551Z,16.27
2022-10-14T11:29:50.265Z,14.75
2022-10-14T11:35:25.282Z,13.73
2022-10-14T11:40:31.961Z,16.15
2022-10-14T11:45:58.001Z,15.90
2022-10-14T11:51:11.039Z,15.23
2022-10-14T11:56:29.530Z,14.82
2022-10-14T12:01:37.252Z,14.65
2022-10-14T12:07:10.088Z,14.60
2022-10-14T12:12:15.011Z,14.43
2022-10-14T12:17:25.642Z,14.48
2022-10-14T12:22:30.355Z,14.00
2022-10-14T12:27:32.348Z,13.60
2022-10-14T12:32:33.864Z,13.25
2022-10-14T12:37:35.921Z,13.13
2022-10-14T12:42:59.001Z,11.20
2022-10-14T12:48:25.296Z,10.30
2022-10-14T12:53:30.587Z,10.82
2022-10-14T12:58:36.380Z,9.25
2022-10-14T13:03:43.942Z,10.00
2022-10-14T13:09:11.186Z,8.77
2022-10-14T13:14:31.207Z,8.65
2022-10-14T13:19:32.556Z,8.38
2022-10-14T13:24:39.750Z,7.30
2022-10-14T13:30:12.071Z,7.55
2022-10-14T13:35:26.347Z,9.70
2022-10-14T13:40:36.952Z,8.57
2022-10-14T13:45:43.363Z,8.43
2022-10-14T13:50:48.449Z,7.95
2022-10-14T13:55:54.581Z,7.50
2022-10-14T14:00:57.933Z,7.30
2022-10-14T14:05:59.992Z,7.63
2022-10-14T14:11:16.330Z,7.03
2022-10-14T14:16:25.366Z,6.88
2022-10-14T14:21:27.898Z,6.75
2022-10-14T14:26:34.806Z,7.05
2022-10-14T14:32:01.885Z,6.32
2022-10-14T14:37:17.257Z,6.03
2022-10-14T14:42:25.801Z,5.65
2022-10-14T14:47:29.008Z,6.10
2022-10-14T14:52:30.779Z,6.88
2022-10-14T14:57:32.222Z,6.15
2022-10-14T15:02:34.981Z,6.78
2022-10-14T15:07:37.036Z,7.13
2022-10-14T15:12:41.975Z,7.25
2022-10-14T15:17:47.585Z,7.80
2022-10-14T15:22:49.151Z,9.20
2022-10-14T15:27:50.566Z,7.68
2022-10-14T15:32:53.219Z,7.13
2022-10-14T15:37:55.082Z,7.00
2022-10-14T15:42:56.669Z,6.95
2022-10-14T15:48:02.720Z,7.07
2022-10-14T15:53:04.149Z,6.82
2022-10-14T15:58:05.937Z,7.05
2022-10-14T16:03:10.430Z,7.60
2022-10-14T16:08:15.325Z,8.00
2022-10-14T16:13:16.749Z,8.13
2022-10-14T16:18:18.424Z,8.18
2022-10-14T16:23:22.482Z,7.82
2022-10-14T16:28:23.910Z,8.90
2022-10-14T16:33:25.601Z,8.93
2022-10-14T16:38:28.200Z,8.48
2022-10-14T16:43:30.009Z,8.27
2022-10-14T16:48:33.813Z,8.68
2022-10-14T16:53:41.222Z,11.07
2022-10-14T16:58:42.648Z,12.90
2022-10-14T17:03:44.059Z,10.40
2022-10-14T17:08:45.528Z,9.32
2022-10-14T17:13:47.257Z,8.77
2022-10-14T17:24:01.378Z,8.82
2022-10-14T17:29:03.610Z,10.18
2022-10-14T17:34:05.344Z,9.77
2022-10-14T17:39:07.774Z,10.10
2022-10-14T17:44:09.233Z,12.27
2022-10-14T17:49:11.992Z,11.00
2022-10-14T17:54:13.433Z,11.23
2022-10-14T17:59:14.835Z,13.77
2022-10-14T18:04:16.370Z,13.75
2022-10-14T18:09:17.788Z,13.77
2022-10-14T18:14:19.188Z,15.73
2022-10-14T18:19:20.584Z,15.75
2022-10-14T18:24:22.622Z,16.98
2022-10-14T18:29:24.645Z,17.73
2022-10-14T18:34:27.369Z,16.95
2022-10-14T18:39:28.815Z,17.60
2022-10-14T18:44:30.311Z,17.67
2022-10-14T18:49:34.531Z,17.40
2022-10-14T18:54:39.611Z,18.63
2022-10-14T18:59:41.055Z,19.20
2022-10-14T19:04:42.514Z,20.45
2022-10-14T19:09:44.659Z,20.50
2022-10-14T19:14:46.769Z,22.27
2022-10-14T19:19:48.218Z,24.08
2022-10-14T19:24:49.643Z,22.08
2022-10-14T19:29:51.052Z,21.40
2022-10-14T19:34:52.501Z,20.00
2022-10-14T19:39:54.101Z,19.77
2022-10-14T19:44:55.538Z,18.55
2022-10-14T19:49:56.969Z,18.77
2022-10-14T19:54:58.423Z,19.13
2022-10-14T19:59:59.887Z,18.85
2022-10-14T20:05:01.381Z,17.88
2022-10-14T20:10:03.274Z,18.10
2022-10-14T20:15:06.708Z,19.05
2022-10-14T20:20:08.772Z,17.88
2022-10-14T20:25:10.303Z,19.02
2022-10-14T20:30:12.578Z,19.30
2022-10-14T20:35:15.114Z,17.05
2022-10-14T20:40:16.918Z,18.98
2022-10-14T20:45:18.698Z,18.00
2022-10-14T20:50:20.476Z,17.42
2022-10-14T20:55:21.872Z,17.63
2022-10-14T21:00:23.322Z,16.90
2022-10-14T21:05:25.278Z,18.33
2022-10-14T21:10:27.327Z,17.65
2022-10-14T21:15:28.764Z,18.63
2022-10-14T21:20:30.544Z,17.33
2022-10-14T21:25:31.966Z,17.40
2022-10-14T21:30:33.628Z,16.77
2022-10-14T21:35:35.204Z,17.35
2022-10-14T21:40:36.814Z,16.17
2022-10-14T21:45:38.282Z,15.77
2022-10-14T21:50:39.675Z,15.80
2022-10-14T21:55:41.109Z,16.70
2022-10-14T22:00:42.559Z,15.70
2022-10-14T22:05:44.387Z,17.00
2022-10-14T22:10:45.867Z,16.20
2022-10-14T22:15:47.343Z,17.35
2022-10-14T22:20:49.972Z,15.48
2022-10-14T22:25:51.389Z,17.02
2022-10-14T22:30:52.796Z,17.70
2022-10-14T22:35:54.193Z,15.98
2022-10-14T22:40:55.637Z,16.55
2022-10-14T22:46:08.757Z,15.52
2022-10-14T22:51:12.540Z,17.13
2022-10-14T22:56:16.922Z,18.05
2022-10-14T23:01:18.432Z,16.42
2022-10-14T23:06:20.221Z,16.73
2022-10-14T23:11:24.025Z,16.60
2022-10-14T23:16:27.275Z,17.02
2022-10-14T23:21:31.242Z,17.38
2022-10-14T23:26:34.969Z,16.65
2022-10-14T23:31:38.534Z,15.98
2022-10-14T23:36:40.373Z,16.70
2022-10-14T23:41:41.881Z,16.38
2022-10-14T23:46:43.360Z,16.48
2022-10-14T23:51:44.852Z,17.52
2022-10-14T23:56:46.282Z,17.33
